Portada
METAR-TAF:

METAR-TAF

Aeroports :

Esbjerg, Dinamarca

latitud: 55-32N, longitud: 008-34E, altitud: 30 m

Observació

L'informe es va fer fa 27 minuts, a les 07:20 UTC
Vent 8 kt del Nord
Temperatura 6°C
Humitat 81%
Pressió 1025 hPa
Visibilitat 10 km o més

METAR: EKEB 300720Z AUTO 36008KT 9999 FEW017/// BKN019/// 06/03 Q1025

Hora: 09:47 (07:47 UTC)

Pronòstic

L'informe es va fer fa 2 hores i 34 minuts, a les 05:13 UTC
Pronòstic vàlid del 30 a les 06 UTC al 30 a les 15 UTC
Vent 12 kt del Nord-Oest
Visibilitat 10 km o més
Cel ennuvolat a una alçada de 2000 ft
Evolucionant progressivament
l' 30 a les 07 UTC al 30 a les 09 UTC
Vent 12 kt del Nord/Nord-Est

TAF: EKEB 300513Z 3006/3015 32012KT 9999 BKN020 BECMG 3007/3009 02012KT

Observacions i pronòstics meteorològics de més de 4000 aeroports (METAR i TAF).

Les estacions disponibles són els punts grocs i vermells al mapa.

Posi el ratolí al punt desitjat per veure el nom de l'estació.

Feu clic per veure les observacions i els pronòstics meteorològics.

Per canviar el mapa: feu clic els botons verds amb una creu de color negre per apropar; al botó verd amb un guió per allunyar la imatge; o en les fletxes verdes per a mapes adjacents.


METAR-TAF: